sensor_id;sensor_type;location;lat;lon;timestamp;pressure;altitude;pressure_sealevel;temperature;humidity
17649;BME280;8943;51.110;-4.158;2023-04-08T00:01:43;101787.31;;;12.44;41.07
17649;BME280;8943;51.110;-4.158;2023-04-08T00:04:13;101791.19;;;12.40;41.03
17649;BME280;8943;51.110;-4.158;2023-04-08T00:07:01;101788.69;;;12.37;41.11
17649;BME280;8943;51.110;-4.158;2023-04-08T00:09:58;101792.63;;;12.31;41.42
17649;BME280;8943;51.110;-4.158;2023-04-08T00:13:23;101787.38;;;12.30;41.50
17649;BME280;8943;51.110;-4.158;2023-04-08T00:16:24;101787.66;;;12.25;41.53
17649;BME280;8943;51.110;-4.158;2023-04-08T00:19:32;101786.03;;;12.23;41.18
17649;BME280;8943;51.110;-4.158;2023-04-08T00:22:15;101784.44;;;12.20;41.41
17649;BME280;8943;51.110;-4.158;2023-04-08T00:25:05;101793.38;;;12.19;41.39
17649;BME280;8943;51.110;-4.158;2023-04-08T00:27:45;101789.84;;;12.19;41.56
17649;BME280;8943;51.110;-4.158;2023-04-08T00:30:18;101788.31;;;12.15;41.51
17649;BME280;8943;51.110;-4.158;2023-04-08T00:32:49;101788.53;;;12.11;41.38
17649;BME280;8943;51.110;-4.158;2023-04-08T00:35:46;101793.31;;;12.06;41.54
17649;BME280;8943;51.110;-4.158;2023-04-08T00:38:25;101781.28;;;11.99;41.31
17649;BME280;8943;51.110;-4.158;2023-04-08T00:40:55;101784.16;;;11.96;41.53
17649;BME280;8943;51.110;-4.158;2023-04-08T00:43:25;101783.47;;;11.93;41.69
17649;BME280;8943;51.110;-4.158;2023-04-08T00:46:24;101781.84;;;11.90;41.51
17649;BME280;8943;51.110;-4.158;2023-04-08T00:48:58;101795.31;;;11.89;42.04
17649;BME280;8943;51.110;-4.158;2023-04-08T00:51:54;101789.50;;;11.82;41.91
17649;BME280;8943;51.110;-4.158;2023-04-08T00:55:14;101794.28;;;11.75;41.62
17649;BME280;8943;51.110;-4.158;2023-04-08T00:58:22;101786.38;;;11.74;42.13
17649;BME280;8943;51.110;-4.158;2023-04-08T01:08:37;101791.44;;;11.64;42.38
17649;BME280;8943;51.110;-4.158;2023-04-08T01:11:11;101788.59;;;11.67;42.29
17649;BME280;8943;51.110;-4.158;2023-04-08T01:13:42;101784.28;;;11.65;42.43
17649;BME280;8943;51.110;-4.158;2023-04-08T01:19:42;101794.28;;;11.61;42.06
17649;BME280;8943;51.110;-4.158;2023-04-08T01:22:55;101784.66;;;11.58;42.03
17649;BME280;8943;51.110;-4.158;2023-04-08T02:03:00;101802.78;;;11.23;43.11
17649;BME280;8943;51.110;-4.158;2023-04-08T02:05:31;101798.31;;;11.24;42.90
17649;BME280;8943;51.110;-4.158;2023-04-08T02:08:28;101800.03;;;11.25;43.16
17649;BME280;8943;51.110;-4.158;2023-04-08T05:23:06;101846.75;;;12.06;44.43
17649;BME280;8943;51.110;-4.158;2023-04-08T05:25:58;101844.81;;;12.08;43.94
17649;BME280;8943;51.110;-4.158;2023-04-08T05:28:54;101848.28;;;12.10;44.02
17649;BME280;8943;51.110;-4.158;2023-04-08T05:31:41;101849.97;;;12.11;44.03
17649;BME280;8943;51.110;-4.158;2023-04-08T05:34:26;101852.66;;;12.11;43.94
17649;BME280;8943;51.110;-4.158;2023-04-08T05:37:31;101851.88;;;12.09;44.08
17649;BME280;8943;51.110;-4.158;2023-04-08T05:49:47;101861.06;;;12.05;44.04
17649;BME280;8943;51.110;-4.158;2023-04-08T06:36:03;101902.75;;;12.65;44.61
17649;BME280;8943;51.110;-4.158;2023-04-08T06:39:00;101905.69;;;12.75;44.47
17649;BME280;8943;51.110;-4.158;2023-04-08T06:41:33;101907.78;;;12.84;44.42
17649;BME280;8943;51.110;-4.158;2023-04-08T06:44:29;101908.34;;;12.89;44.45
17649;BME280;8943;51.110;-4.158;2023-04-08T07:10:04;101937.09;;;13.41;45.03
17649;BME280;8943;51.110;-4.158;2023-04-08T07:12:36;101949.13;;;13.48;45.08
17649;BME280;8943;51.110;-4.158;2023-04-08T07:15:08;101947.75;;;13.55;44.78
17649;BME280;8943;51.110;-4.158;2023-04-08T07:17:38;101948.22;;;13.62;44.87
17649;BME280;8943;51.110;-4.158;2023-04-08T07:35:12;101956.75;;;13.94;45.08
17649;BME280;8943;51.110;-4.158;2023-04-08T07:37:42;101958.81;;;14.03;45.44
17649;BME280;8943;51.110;-4.158;2023-04-08T07:40:13;101954.53;;;14.13;45.08
17649;BME280;8943;51.110;-4.158;2023-04-08T07:42:47;101958.09;;;14.27;45.42
17649;BME280;8943;51.110;-4.158;2023-04-08T07:45:18;101958.19;;;14.38;45.34
17649;BME280;8943;51.110;-4.158;2023-04-08T07:47:47;101961.19;;;14.46;45.58
17649;BME280;8943;51.110;-4.158;2023-04-08T07:53:45;101960.69;;;14.66;45.52
17649;BME280;8943;51.110;-4.158;2023-04-08T08:16:06;101988.13;;;15.32;45.43
17649;BME280;8943;51.110;-4.158;2023-04-08T08:21:28;101983.28;;;15.61;44.99
17649;BME280;8943;51.110;-4.158;2023-04-08T08:40:44;101994.16;;;16.19;45.61
17649;BME280;8943;51.110;-4.158;2023-04-08T08:43:13;101999.31;;;16.22;45.41
17649;BME280;8943;51.110;-4.158;2023-04-08T08:45:42;101999.13;;;16.36;45.84
17649;BME280;8943;51.110;-4.158;2023-04-08T08:48:11;101991.91;;;16.48;45.49
17649;BME280;8943;51.110;-4.158;2023-04-08T08:50:40;101994.13;;;16.54;45.69
17649;BME280;8943;51.110;-4.158;2023-04-08T08:53:18;101994.16;;;16.65;45.64
17649;BME280;8943;51.110;-4.158;2023-04-08T08:55:51;101997.09;;;16.73;45.81
17649;BME280;8943;51.110;-4.158;2023-04-08T08:58:44;101988.66;;;16.78;45.54
17649;BME280;8943;51.110;-4.158;2023-04-08T09:01:30;101989.28;;;16.82;45.70
17649;BME280;8943;51.110;-4.158;2023-04-08T09:04:10;101987.34;;;16.84;45.73
17649;BME280;8943;51.110;-4.158;2023-04-08T09:07:08;101977.28;;;16.97;45.63
17649;BME280;8943;51.110;-4.158;2023-04-08T09:09:55;101981.22;;;17.04;45.55
17649;BME280;8943;51.110;-4.158;2023-04-08T09:12:28;101991.84;;;17.06;45.60
17649;BME280;8943;51.110;-4.158;2023-04-08T09:15:05;101985.84;;;17.13;45.47
17649;BME280;8943;51.110;-4.158;2023-04-08T09:17:37;101994.66;;;17.15;45.43
17649;BME280;8943;51.110;-4.158;2023-04-08T09:20:12;101982.28;;;17.24;45.48
17649;BME280;8943;51.110;-4.158;2023-04-08T09:33:38;101996.34;;;17.71;45.01
17649;BME280;8943;51.110;-4.158;2023-04-08T09:36:07;101991.34;;;17.78;44.95
17649;BME280;8943;51.110;-4.158;2023-04-08T09:38:37;102002.22;;;17.87;44.81
17649;BME280;8943;51.110;-4.158;2023-04-08T09:41:07;102000.59;;;17.96;44.75
17649;BME280;8943;51.110;-4.158;2023-04-08T09:43:41;102001.78;;;18.03;44.53
17649;BME280;8943;51.110;-4.158;2023-04-08T09:46:16;102001.47;;;18.17;44.74
17649;BME280;8943;51.110;-4.158;2023-04-08T09:48:55;101999.69;;;18.27;44.45
17649;BME280;8943;51.110;-4.158;2023-04-08T09:51:28;101995.47;;;18.35;44.47
17649;BME280;8943;51.110;-4.158;2023-04-08T09:54:02;101996.66;;;18.42;44.13
17649;BME280;8943;51.110;-4.158;2023-04-08T09:56:40;102000.25;;;18.52;43.78
17649;BME280;8943;51.110;-4.158;2023-04-08T09:59:13;101989.66;;;18.60;43.88
17649;BME280;8943;51.110;-4.158;2023-04-08T10:01:48;101998.22;;;18.65;43.80
17649;BME280;8943;51.110;-4.158;2023-04-08T10:04:27;101995.00;;;18.71;43.48
17649;BME280;8943;51.110;-4.158;2023-04-08T10:06:58;101987.22;;;18.78;43.37
17649;BME280;8943;51.110;-4.158;2023-04-08T10:09:36;101987.00;;;18.91;43.35
17649;BME280;8943;51.110;-4.158;2023-04-08T10:12:13;101986.19;;;19.00;43.02
17649;BME280;8943;51.110;-4.158;2023-04-08T10:15:20;101988.16;;;19.08;43.00
17649;BME280;8943;51.110;-4.158;2023-04-08T10:18:30;101991.63;;;19.19;42.79
17649;BME280;8943;51.110;-4.158;2023-04-08T10:21:30;101990.50;;;19.32;42.60
17649;BME280;8943;51.110;-4.158;2023-04-08T10:23:59;102000.50;;;19.41;42.30
17649;BME280;8943;51.110;-4.158;2023-04-08T10:26:33;101992.84;;;19.55;42.33
17649;BME280;8943;51.110;-4.158;2023-04-08T10:29:30;101988.31;;;19.66;42.04
17649;BME280;8943;51.110;-4.158;2023-04-08T10:31:59;101988.63;;;19.72;41.98
17649;BME280;8943;51.110;-4.158;2023-04-08T10:34:28;101990.94;;;19.87;42.05
17649;BME280;8943;51.110;-4.158;2023-04-08T10:37:01;101990.91;;;19.96;41.51
17649;BME280;8943;51.110;-4.158;2023-04-08T10:39:31;101988.34;;;20.04;40.96
17649;BME280;8943;51.110;-4.158;2023-04-08T10:42:02;101996.88;;;20.10;41.01
17649;BME280;8943;51.110;-4.158;2023-04-08T10:44:31;101989.75;;;20.18;40.77
17649;BME280;8943;51.110;-4.158;2023-04-08T10:47:00;101974.34;;;20.28;40.56
17649;BME280;8943;51.110;-4.158;2023-04-08T10:49:32;101980.31;;;20.42;40.44
17649;BME280;8943;51.110;-4.158;2023-04-08T10:52:06;101979.03;;;20.55;40.22
17649;BME280;8943;51.110;-4.158;2023-04-08T10:54:36;101968.56;;;20.70;40.26
17649;BME280;8943;51.110;-4.158;2023-04-08T10:57:06;101956.41;;;20.84;39.94
17649;BME280;8943;51.110;-4.158;2023-04-08T10:59:35;101960.03;;;20.93;39.44
17649;BME280;8943;51.110;-4.158;2023-04-08T11:02:11;101957.44;;;21.01;38.72
17649;BME280;8943;51.110;-4.158;2023-04-08T11:04:41;101955.81;;;21.08;39.08
17649;BME280;8943;51.110;-4.158;2023-04-08T11:07:12;101952.53;;;21.14;38.54
17649;BME280;8943;51.110;-4.158;2023-04-08T11:09:41;101954.16;;;21.25;38.47
17649;BME280;8943;51.110;-4.158;2023-04-08T11:12:10;101957.25;;;21.30;37.69
17649;BME280;8943;51.110;-4.158;2023-04-08T11:14:39;101963.13;;;21.35;37.68
17649;BME280;8943;51.110;-4.158;2023-04-08T11:19:42;101952.19;;;21.45;36.61
17649;BME280;8943;51.110;-4.158;2023-04-08T11:22:13;101942.75;;;21.49;36.54
17649;BME280;8943;51.110;-4.158;2023-04-08T11:24:43;101944.84;;;21.55;36.67
17649;BME280;8943;51.110;-4.158;2023-04-08T11:27:12;101947.25;;;21.58;36.22
17649;BME280;8943;51.110;-4.158;2023-04-08T11:29:41;101940.66;;;21.60;35.78
17649;BME280;8943;51.110;-4.158;2023-04-08T11:32:11;101941.88;;;21.66;35.67
17649;BME280;8943;51.110;-4.158;2023-04-08T11:34:40;101938.03;;;21.69;35.56
17649;BME280;8943;51.110;-4.158;2023-04-08T11:37:10;101948.41;;;21.73;35.26
17649;BME280;8943;51.110;-4.158;2023-04-08T11:39:41;101951.69;;;21.77;35.63
17649;BME280;8943;51.110;-4.158;2023-04-08T11:42:25;101950.31;;;21.81;35.02
17649;BME280;8943;51.110;-4.158;2023-04-08T11:44:54;101954.22;;;21.78;34.70
17649;BME280;8943;51.110;-4.158;2023-04-08T11:47:29;101953.69;;;21.75;33.85
17649;BME280;8943;51.110;-4.158;2023-04-08T11:49:58;101947.41;;;21.74;33.81
17649;BME280;8943;51.110;-4.158;2023-04-08T11:52:40;101945.63;;;21.65;33.19
17649;BME280;8943;51.110;-4.158;2023-04-08T11:55:27;101937.81;;;21.62;33.11
17649;BME280;8943;51.110;-4.158;2023-04-08T11:58:01;101937.63;;;21.64;33.24
17649;BME280;8943;51.110;-4.158;2023-04-08T12:00:30;101942.22;;;21.63;33.63
17649;BME280;8943;51.110;-4.158;2023-04-08T12:03:00;101949.03;;;21.67;33.45
17649;BME280;8943;51.110;-4.158;2023-04-08T12:05:29;101952.13;;;21.72;33.28
17649;BME280;8943;51.110;-4.158;2023-04-08T12:07:57;101947.09;;;21.77;33.47
17649;BME280;8943;51.110;-4.158;2023-04-08T12:10:29;101951.88;;;21.83;33.16
17649;BME280;8943;51.110;-4.158;2023-04-08T12:12:58;101948.91;;;21.95;33.33
17649;BME280;8943;51.110;-4.158;2023-04-08T12:15:27;101958.53;;;22.07;33.01
17649;BME280;8943;51.110;-4.158;2023-04-08T12:17:55;101954.56;;;22.19;32.85
17649;BME280;8943;51.110;-4.158;2023-04-08T12:20:24;101959.25;;;22.35;32.82
17649;BME280;8943;51.110;-4.158;2023-04-08T12:22:53;101947.28;;;22.46;32.00
17649;BME280;8943;51.110;-4.158;2023-04-08T12:25:22;101955.16;;;22.57;31.95
17649;BME280;8943;51.110;-4.158;2023-04-08T12:27:54;101945.56;;;22.71;31.89
17649;BME280;8943;51.110;-4.158;2023-04-08T12:30:25;101966.69;;;22.85;31.97
17649;BME280;8943;51.110;-4.158;2023-04-08T12:32:58;101963.22;;;23.01;31.42
17649;BME280;8943;51.110;-4.158;2023-04-08T12:35:41;101957.16;;;23.15;31.20
17649;BME280;8943;51.110;-4.158;2023-04-08T12:38:11;101956.50;;;23.29;31.39
17649;BME280;8943;51.110;-4.158;2023-04-08T12:40:40;101957.88;;;23.42;30.64
17649;BME280;8943;51.110;-4.158;2023-04-08T12:43:11;101957.72;;;23.51;30.52
17649;BME280;8943;51.110;-4.158;2023-04-08T12:45:40;101958.09;;;23.56;30.34
17649;BME280;8943;51.110;-4.158;2023-04-08T12:48:08;101970.03;;;23.63;30.29
17649;BME280;8943;51.110;-4.158;2023-04-08T12:50:37;101964.25;;;23.75;29.92
17649;BME280;8943;51.110;-4.158;2023-04-08T12:53:05;101961.38;;;23.84;29.48
17649;BME280;8943;51.110;-4.158;2023-04-08T12:55:34;101956.97;;;23.92;29.21
17649;BME280;8943;51.110;-4.158;2023-04-08T12:58:03;101953.75;;;23.96;29.03
17649;BME280;8943;51.110;-4.158;2023-04-08T13:00:33;101956.28;;;23.98;28.70
17649;BME280;8943;51.110;-4.158;2023-04-08T13:03:04;101955.25;;;24.07;28.75
17649;BME280;8943;51.110;-4.158;2023-04-08T13:05:33;101954.94;;;24.02;28.63
17649;BME280;8943;51.110;-4.158;2023-04-08T13:08:09;101943.66;;;24.05;28.13
17649;BME280;8943;51.110;-4.158;2023-04-08T13:10:38;101955.22;;;24.23;27.60
17649;BME280;8943;51.110;-4.158;2023-04-08T13:13:06;101953.16;;;24.33;27.46
17649;BME280;8943;51.110;-4.158;2023-04-08T13:15:36;101954.19;;;24.32;26.96
17649;BME280;8943;51.110;-4.158;2023-04-08T13:18:04;101950.44;;;24.33;27.14
17649;BME280;8943;51.110;-4.158;2023-04-08T13:20:32;101950.13;;;24.28;27.48
17649;BME280;8943;51.110;-4.158;2023-04-08T13:23:01;101952.50;;;24.39;27.06
17649;BME280;8943;51.110;-4.158;2023-04-08T13:25:29;101951.13;;;24.35;26.96
17649;BME280;8943;51.110;-4.158;2023-04-08T13:27:57;101949.09;;;24.46;27.03
17649;BME280;8943;51.110;-4.158;2023-04-08T13:30:25;101954.88;;;24.43;27.46
17649;BME280;8943;51.110;-4.158;2023-04-08T13:32:55;101955.41;;;24.38;27.45
17649;BME280;8943;51.110;-4.158;2023-04-08T13:35:23;101952.88;;;24.36;27.46
17649;BME280;8943;51.110;-4.158;2023-04-08T13:37:52;101954.19;;;24.49;27.00
17649;BME280;8943;51.110;-4.158;2023-04-08T13:40:20;101952.47;;;24.56;26.86
17649;BME280;8943;51.110;-4.158;2023-04-08T13:42:49;101946.34;;;24.54;26.90
17649;BME280;8943;51.110;-4.158;2023-04-08T13:45:18;101946.81;;;24.65;26.50
17649;BME280;8943;51.110;-4.158;2023-04-08T13:47:46;101944.56;;;24.69;26.61
17649;BME280;8943;51.110;-4.158;2023-04-08T13:50:16;101951.38;;;24.73;26.09
17649;BME280;8943;51.110;-4.158;2023-04-08T13:52:43;101943.06;;;24.75;26.31
17649;BME280;8943;51.110;-4.158;2023-04-08T13:55:12;101950.00;;;24.85;25.64
17649;BME280;8943;51.110;-4.158;2023-04-08T13:57:40;101931.22;;;24.90;25.96
17649;BME280;8943;51.110;-4.158;2023-04-08T14:00:09;101945.88;;;24.89;25.81
17649;BME280;8943;51.110;-4.158;2023-04-08T14:02:39;101930.22;;;24.83;25.70
17649;BME280;8943;51.110;-4.158;2023-04-08T14:05:08;101930.75;;;24.79;25.56
17649;BME280;8943;51.110;-4.158;2023-04-08T14:07:38;101930.78;;;24.71;25.97
17649;BME280;8943;51.110;-4.158;2023-04-08T14:10:08;101932.16;;;24.75;25.98
17649;BME280;8943;51.110;-4.158;2023-04-08T14:12:37;101928.19;;;24.85;25.83
17649;BME280;8943;51.110;-4.158;2023-04-08T14:15:07;101931.50;;;25.04;25.93
17649;BME280;8943;51.110;-4.158;2023-04-08T14:17:36;101924.91;;;25.29;25.94
17649;BME280;8943;51.110;-4.158;2023-04-08T14:20:07;101922.84;;;25.54;25.29
17649;BME280;8943;51.110;-4.158;2023-04-08T14:22:38;101937.78;;;25.89;24.17
17649;BME280;8943;51.110;-4.158;2023-04-08T14:25:08;101936.88;;;25.97;23.89
17649;BME280;8943;51.110;-4.158;2023-04-08T14:27:37;101937.19;;;25.79;23.79
17649;BME280;8943;51.110;-4.158;2023-04-08T14:30:23;101936.44;;;25.39;23.67
17649;BME280;8943;51.110;-4.158;2023-04-08T14:32:53;101932.50;;;25.11;23.92
17649;BME280;8943;51.110;-4.158;2023-04-08T14:35:22;101931.56;;;24.87;24.04
17649;BME280;8943;51.110;-4.158;2023-04-08T14:37:52;101933.69;;;24.69;24.04
17649;BME280;8943;51.110;-4.158;2023-04-08T14:40:21;101936.28;;;24.54;24.49
17649;BME280;8943;51.110;-4.158;2023-04-08T14:42:50;101926.25;;;24.55;24.72
17649;BME280;8943;51.110;-4.158;2023-04-08T14:45:19;101929.13;;;24.61;24.67
17649;BME280;8943;51.110;-4.158;2023-04-08T14:47:48;101929.25;;;24.68;24.97
17649;BME280;8943;51.110;-4.158;2023-04-08T14:50:18;101926.81;;;24.81;24.83
17649;BME280;8943;51.110;-4.158;2023-04-08T14:52:48;101923.84;;;24.60;25.34
17649;BME280;8943;51.110;-4.158;2023-04-08T14:55:19;101922.78;;;24.69;25.20
17649;BME280;8943;51.110;-4.158;2023-04-08T14:57:48;101911.66;;;24.79;25.55
17649;BME280;8943;51.110;-4.158;2023-04-08T15:00:17;101913.06;;;25.06;25.74
17649;BME280;8943;51.110;-4.158;2023-04-08T15:02:48;101915.94;;;25.43;25.77
17649;BME280;8943;51.110;-4.158;2023-04-08T15:05:16;101911.56;;;25.80;25.52
17649;BME280;8943;51.110;-4.158;2023-04-08T15:07:46;101914.50;;;26.31;25.18
17649;BME280;8943;51.110;-4.158;2023-04-08T15:10:16;101913.56;;;26.83;24.74
17649;BME280;8943;51.110;-4.158;2023-04-08T15:12:49;101917.25;;;27.27;24.49
17649;BME280;8943;51.110;-4.158;2023-04-08T15:15:18;101909.25;;;27.68;24.22
17649;BME280;8943;51.110;-4.158;2023-04-08T15:17:49;101924.13;;;28.02;23.55
17649;BME280;8943;51.110;-4.158;2023-04-08T15:20:18;101902.34;;;28.21;23.29
17649;BME280;8943;51.110;-4.158;2023-04-08T15:22:48;101913.34;;;28.28;23.23
17649;BME280;8943;51.110;-4.158;2023-04-08T15:25:18;101914.31;;;28.20;23.01
17649;BME280;8943;51.110;-4.158;2023-04-08T15:27:46;101914.88;;;28.09;22.50
17649;BME280;8943;51.110;-4.158;2023-04-08T15:30:17;101910.09;;;27.90;22.40
17649;BME280;8943;51.110;-4.158;2023-04-08T15:32:50;101910.44;;;27.80;22.38
17649;BME280;8943;51.110;-4.158;2023-04-08T15:35:20;101908.13;;;27.77;21.89
17649;BME280;8943;51.110;-4.158;2023-04-08T15:37:48;101909.06;;;27.69;21.76
17649;BME280;8943;51.110;-4.158;2023-04-08T15:40:18;101906.34;;;27.48;21.95
17649;BME280;8943;51.110;-4.158;2023-04-08T15:42:46;101902.72;;;27.26;22.16
17649;BME280;8943;51.110;-4.158;2023-04-08T15:45:17;101896.66;;;27.09;22.02
17649;BME280;8943;51.110;-4.158;2023-04-08T15:47:45;101894.09;;;26.93;22.26
17649;BME280;8943;51.110;-4.158;2023-04-08T15:50:14;101891.59;;;26.77;22.36
17649;BME280;8943;51.110;-4.158;2023-04-08T15:52:43;101904.25;;;26.48;23.24
17649;BME280;8943;51.110;-4.158;2023-04-08T15:55:11;101898.09;;;26.31;23.28
17649;BME280;8943;51.110;-4.158;2023-04-08T15:57:39;101894.34;;;26.32;22.97
17649;BME280;8943;51.110;-4.158;2023-04-08T16:00:09;101896.69;;;26.35;23.02
17649;BME280;8943;51.110;-4.158;2023-04-08T16:02:39;101896.59;;;26.29;22.86
17649;BME280;8943;51.110;-4.158;2023-04-08T16:05:08;101888.38;;;26.29;22.90
17649;BME280;8943;51.110;-4.158;2023-04-08T16:07:38;101898.66;;;26.12;22.93
17649;BME280;8943;51.110;-4.158;2023-04-08T16:10:07;101908.72;;;25.97;23.08
17649;BME280;8943;51.110;-4.158;2023-04-08T16:12:35;101893.16;;;25.82;23.09
17649;BME280;8943;51.110;-4.158;2023-04-08T16:15:04;101894.56;;;25.70;23.22
17649;BME280;8943;51.110;-4.158;2023-04-08T16:17:33;101896.41;;;25.55;23.45
17649;BME280;8943;51.110;-4.158;2023-04-08T16:20:04;101893.72;;;25.47;23.90
17649;BME280;8943;51.110;-4.158;2023-04-08T16:22:32;101892.78;;;25.39;23.79
17649;BME280;8943;51.110;-4.158;2023-04-08T16:25:01;101882.75;;;25.32;23.88
17649;BME280;8943;51.110;-4.158;2023-04-08T16:27:32;101883.19;;;25.21;24.20
17649;BME280;8943;51.110;-4.158;2023-04-08T16:30:01;101880.03;;;25.09;24.15
17649;BME280;8943;51.110;-4.158;2023-04-08T16:32:29;101880.06;;;24.92;24.46
17649;BME280;8943;51.110;-4.158;2023-04-08T16:34:58;101885.94;;;24.81;24.30
17649;BME280;8943;51.110;-4.158;2023-04-08T16:37:28;101880.38;;;24.66;24.51
17649;BME280;8943;51.110;-4.158;2023-04-08T16:39:56;101877.88;;;24.49;24.38
17649;BME280;8943;51.110;-4.158;2023-04-08T16:42:26;101889.19;;;24.37;24.56
17649;BME280;8943;51.110;-4.158;2023-04-08T16:44:55;101886.94;;;24.33;24.63
17649;BME280;8943;51.110;-4.158;2023-04-08T16:47:25;101894.13;;;24.26;24.88
17649;BME280;8943;51.110;-4.158;2023-04-08T16:49:54;101889.00;;;24.23;24.81
17649;BME280;8943;51.110;-4.158;2023-04-08T16:52:30;101880.19;;;24.12;24.91
17649;BME280;8943;51.110;-4.158;2023-04-08T16:54:59;101882.72;;;24.06;25.03
17649;BME280;8943;51.110;-4.158;2023-04-08T16:57:32;101882.06;;;23.96;25.35
17649;BME280;8943;51.110;-4.158;2023-04-08T17:00:06;101888.56;;;23.86;25.17
17649;BME280;8943;51.110;-4.158;2023-04-08T17:02:52;101892.13;;;23.71;25.08
17649;BME280;8943;51.110;-4.158;2023-04-08T17:05:36;101890.75;;;23.58;25.33
17649;BME280;8943;51.110;-4.158;2023-04-08T17:08:08;101893.97;;;23.46;25.31
17649;BME280;8943;51.110;-4.158;2023-04-08T17:10:41;101879.84;;;23.42;25.47
17649;BME280;8943;51.110;-4.158;2023-04-08T17:13:11;101894.66;;;23.39;25.73
17649;BME280;8943;51.110;-4.158;2023-04-08T17:15:55;101895.16;;;23.43;25.74
17649;BME280;8943;51.110;-4.158;2023-04-08T17:18:30;101892.78;;;23.48;26.08
17649;BME280;8943;51.110;-4.158;2023-04-08T17:21:15;101894.84;;;23.54;25.96
17649;BME280;8943;51.110;-4.158;2023-04-08T17:23:50;101893.13;;;23.53;25.90
17649;BME280;8943;51.110;-4.158;2023-04-08T17:26:22;101896.69;;;23.46;26.10
17649;BME280;8943;51.110;-4.158;2023-04-08T17:29:00;101897.53;;;23.30;26.07
17649;BME280;8943;51.110;-4.158;2023-04-08T17:31:30;101895.28;;;23.17;26.17
17649;BME280;8943;51.110;-4.158;2023-04-08T17:34:05;101899.34;;;23.05;26.08
17649;BME280;8943;51.110;-4.158;2023-04-08T17:37:02;101887.03;;;22.84;26.33
17649;BME280;8943;51.110;-4.158;2023-04-08T17:42:53;101907.22;;;22.48;26.79
17649;BME280;8943;51.110;-4.158;2023-04-08T17:45:34;101898.63;;;22.26;27.21
17649;BME280;8943;51.110;-4.158;2023-04-08T17:48:10;101904.75;;;22.10;27.14
17649;BME280;8943;51.110;-4.158;2023-04-08T17:51:08;101901.94;;;21.94;27.35
17649;BME280;8943;51.110;-4.158;2023-04-08T17:53:47;101903.53;;;21.79;27.46
17649;BME280;8943;51.110;-4.158;2023-04-08T17:56:18;101890.44;;;21.56;27.58
17649;BME280;8943;51.110;-4.158;2023-04-08T17:59:05;101897.19;;;21.34;27.82
17649;BME280;8943;51.110;-4.158;2023-04-08T18:01:41;101899.78;;;21.08;28.11
17649;BME280;8943;51.110;-4.158;2023-04-08T18:04:24;101906.56;;;20.95;28.17
17649;BME280;8943;51.110;-4.158;2023-04-08T18:06:57;101903.25;;;20.73;28.39
17649;BME280;8943;51.110;-4.158;2023-04-08T18:09:53;101898.91;;;20.53;28.91
17649;BME280;8943;51.110;-4.158;2023-04-08T18:12:23;101894.00;;;20.29;28.98
17649;BME280;8943;51.110;-4.158;2023-04-08T18:15:17;101894.78;;;20.02;29.32
17649;BME280;8943;51.110;-4.158;2023-04-08T18:17:46;101894.94;;;19.81;29.55
17649;BME280;8943;51.110;-4.158;2023-04-08T18:20:42;101892.09;;;19.53;29.97
17649;BME280;8943;51.110;-4.158;2023-04-08T18:23:36;101900.47;;;19.31;30.29
17649;BME280;8943;51.110;-4.158;2023-04-08T18:26:07;101891.78;;;19.08;30.96
17649;BME280;8943;51.110;-4.158;2023-04-08T18:28:37;101889.75;;;18.91;31.10
17649;BME280;8943;51.110;-4.158;2023-04-08T18:38:15;101886.09;;;18.31;32.04
17649;BME280;8943;51.110;-4.158;2023-04-08T18:40:52;101892.94;;;18.14;32.09
17649;BME280;8943;51.110;-4.158;2023-04-08T18:43:24;101895.13;;;17.99;32.84
17649;BME280;8943;51.110;-4.158;2023-04-08T18:46:01;101884.97;;;17.82;33.11
17649;BME280;8943;51.110;-4.158;2023-04-08T18:48:45;101897.97;;;17.65;33.19
17649;BME280;8943;51.110;-4.158;2023-04-08T18:51:28;101890.50;;;17.48;33.37
17649;BME280;8943;51.110;-4.158;2023-04-08T18:54:44;101890.03;;;17.32;33.85
17649;BME280;8943;51.110;-4.158;2023-04-08T18:57:17;101893.03;;;17.17;34.37
17649;BME280;8943;51.110;-4.158;2023-04-08T18:59:46;101892.22;;;17.06;34.62
17649;BME280;8943;51.110;-4.158;2023-04-08T19:02:14;101894.81;;;16.96;34.69
17649;BME280;8943;51.110;-4.158;2023-04-08T19:04:43;101899.22;;;16.86;34.54
17649;BME280;8943;51.110;-4.158;2023-04-08T19:07:11;101897.50;;;16.73;35.30
17649;BME280;8943;51.110;-4.158;2023-04-08T19:09:41;101893.72;;;16.65;35.46
17649;BME280;8943;51.110;-4.158;2023-04-08T19:12:09;101898.13;;;16.55;35.57
17649;BME280;8943;51.110;-4.158;2023-04-08T19:14:37;101897.75;;;16.48;35.67
17649;BME280;8943;51.110;-4.158;2023-04-08T19:17:07;101895.78;;;16.39;35.86
17649;BME280;8943;51.110;-4.158;2023-04-08T19:19:37;101891.75;;;16.33;36.13
17649;BME280;8943;51.110;-4.158;2023-04-08T19:22:06;101884.31;;;16.26;36.21
17649;BME280;8943;51.110;-4.158;2023-04-08T19:24:45;101886.88;;;16.16;36.64
17649;BME280;8943;51.110;-4.158;2023-04-08T19:27:15;101884.53;;;16.11;36.58
17649;BME280;8943;51.110;-4.158;2023-04-08T19:30:04;101882.44;;;16.04;36.59
17649;BME280;8943;51.110;-4.158;2023-04-08T19:32:34;101892.81;;;15.97;36.73
17649;BME280;8943;51.110;-4.158;2023-04-08T19:35:05;101894.03;;;15.93;36.75
17649;BME280;8943;51.110;-4.158;2023-04-08T19:37:33;101890.72;;;15.89;37.02
17649;BME280;8943;51.110;-4.158;2023-04-08T19:40:04;101885.81;;;15.83;37.54
17649;BME280;8943;51.110;-4.158;2023-04-08T19:42:33;101887.03;;;15.79;37.62
17649;BME280;8943;51.110;-4.158;2023-04-08T19:45:03;101887.16;;;15.78;37.79
17649;BME280;8943;51.110;-4.158;2023-04-08T19:47:33;101886.75;;;15.71;38.13
17649;BME280;8943;51.110;-4.158;2023-04-08T19:50:01;101887.84;;;15.68;38.08
17649;BME280;8943;51.110;-4.158;2023-04-08T19:52:31;101891.75;;;15.64;38.00
17649;BME280;8943;51.110;-4.158;2023-04-08T19:55:19;101889.50;;;15.58;38.42
17649;BME280;8943;51.110;-4.158;2023-04-08T19:57:54;101888.88;;;15.55;38.74
17649;BME280;8943;51.110;-4.158;2023-04-08T20:00:26;101892.75;;;15.51;38.86
17649;BME280;8943;51.110;-4.158;2023-04-08T20:02:55;101889.34;;;15.49;38.73
17649;BME280;8943;51.110;-4.158;2023-04-08T20:05:25;101887.00;;;15.44;39.05
17649;BME280;8943;51.110;-4.158;2023-04-08T20:07:54;101884.53;;;15.41;39.09